sensor_id;sensor_type;location;lat;lon;timestamp;P1;durP1;ratioP1;P2;durP2;ratioP2
12171;SDS011;6149;52.418;13.668;2023-11-18T00:02:24;12.47;;;9.00;;
12171;SDS011;6149;52.418;13.668;2023-11-18T00:04:51;10.70;;;8.17;;
12171;SDS011;6149;52.418;13.668;2023-11-18T00:07:17;11.60;;;8.60;;
12171;SDS011;6149;52.418;13.668;2023-11-18T00:09:44;12.67;;;8.67;;
12171;SDS011;6149;52.418;13.668;2023-11-18T00:12:11;11.83;;;8.67;;
12171;SDS011;6149;52.418;13.668;2023-11-18T00:14:40;12.57;;;8.03;;
12171;SDS011;6149;52.418;13.668;2023-11-18T00:17:07;10.23;;;8.73;;
12171;SDS011;6149;52.418;13.668;2023-11-18T00:19:35;11.33;;;7.93;;
12171;SDS011;6149;52.418;13.668;2023-11-18T00:22:01;13.40;;;8.10;;
12171;SDS011;6149;52.418;13.668;2023-11-18T00:24:28;10.30;;;7.27;;
12171;SDS011;6149;52.418;13.668;2023-11-18T00:26:55;9.07;;;7.77;;
12171;SDS011;6149;52.418;13.668;2023-11-18T00:29:21;11.60;;;8.40;;
12171;SDS011;6149;52.418;13.668;2023-11-18T00:31:49;9.63;;;8.00;;
12171;SDS011;6149;52.418;13.668;2023-11-18T00:34:16;9.03;;;8.07;;
12171;SDS011;6149;52.418;13.668;2023-11-18T00:36:42;9.73;;;7.43;;
12171;SDS011;6149;52.418;13.668;2023-11-18T00:39:09;11.00;;;7.60;;
12171;SDS011;6149;52.418;13.668;2023-11-18T00:41:36;10.70;;;7.90;;
12171;SDS011;6149;52.418;13.668;2023-11-18T00:44:02;9.83;;;7.83;;
12171;SDS011;6149;52.418;13.668;2023-11-18T00:46:29;9.27;;;7.67;;
12171;SDS011;6149;52.418;13.668;2023-11-18T00:48:57;10.37;;;7.63;;
12171;SDS011;6149;52.418;13.668;2023-11-18T00:51:23;10.93;;;8.43;;
12171;SDS011;6149;52.418;13.668;2023-11-18T00:53:50;10.03;;;7.30;;
12171;SDS011;6149;52.418;13.668;2023-11-18T00:56:19;9.63;;;7.50;;
12171;SDS011;6149;52.418;13.668;2023-11-18T00:58:46;11.13;;;7.03;;
12171;SDS011;6149;52.418;13.668;2023-11-18T01:01:13;10.40;;;7.30;;
12171;SDS011;6149;52.418;13.668;2023-11-18T01:03:42;11.63;;;7.20;;
12171;SDS011;6149;52.418;13.668;2023-11-18T01:06:10;9.23;;;6.57;;
12171;SDS011;6149;52.418;13.668;2023-11-18T01:08:37;9.50;;;7.37;;
12171;SDS011;6149;52.418;13.668;2023-11-18T01:11:05;9.77;;;7.50;;
12171;SDS011;6149;52.418;13.668;2023-11-18T01:13:32;10.73;;;7.77;;
12171;SDS011;6149;52.418;13.668;2023-11-18T01:15:58;11.20;;;7.50;;
12171;SDS011;6149;52.418;13.668;2023-11-18T01:18:25;11.57;;;7.30;;
12171;SDS011;6149;52.418;13.668;2023-11-18T01:20:51;10.80;;;7.23;;
12171;SDS011;6149;52.418;13.668;2023-11-18T01:23:19;8.87;;;6.80;;
12171;SDS011;6149;52.418;13.668;2023-11-18T01:25:46;10.50;;;7.33;;
12171;SDS011;6149;52.418;13.668;2023-11-18T01:28:16;9.00;;;6.70;;
12171;SDS011;6149;52.418;13.668;2023-11-18T01:30:42;8.13;;;6.97;;
12171;SDS011;6149;52.418;13.668;2023-11-18T01:33:10;11.20;;;7.90;;
12171;SDS011;6149;52.418;13.668;2023-11-18T01:35:37;8.93;;;7.27;;
12171;SDS011;6149;52.418;13.668;2023-11-18T01:38:04;9.13;;;7.33;;
12171;SDS011;6149;52.418;13.668;2023-11-18T01:40:32;10.00;;;7.63;;
12171;SDS011;6149;52.418;13.668;2023-11-18T01:42:59;10.87;;;8.40;;
12171;SDS011;6149;52.418;13.668;2023-11-18T01:45:26;13.27;;;7.67;;
12171;SDS011;6149;52.418;13.668;2023-11-18T01:47:53;9.37;;;7.10;;
12171;SDS011;6149;52.418;13.668;2023-11-18T01:50:19;10.03;;;7.97;;
12171;SDS011;6149;52.418;13.668;2023-11-18T01:52:46;11.97;;;7.70;;
12171;SDS011;6149;52.418;13.668;2023-11-18T01:55:14;11.07;;;8.07;;
12171;SDS011;6149;52.418;13.668;2023-11-18T01:57:43;9.80;;;7.73;;
12171;SDS011;6149;52.418;13.668;2023-11-18T02:00:11;10.73;;;7.73;;
12171;SDS011;6149;52.418;13.668;2023-11-18T02:02:38;10.43;;;7.30;;
12171;SDS011;6149;52.418;13.668;2023-11-18T02:05:05;10.77;;;8.30;;
12171;SDS011;6149;52.418;13.668;2023-11-18T02:07:32;10.47;;;7.27;;
12171;SDS011;6149;52.418;13.668;2023-11-18T02:10:01;11.87;;;8.30;;
12171;SDS011;6149;52.418;13.668;2023-11-18T02:12:29;12.23;;;8.20;;
12171;SDS011;6149;52.418;13.668;2023-11-18T02:15:04;9.60;;;7.57;;
12171;SDS011;6149;52.418;13.668;2023-11-18T02:17:35;9.70;;;7.30;;
12171;SDS011;6149;52.418;13.668;2023-11-18T02:20:05;11.00;;;7.73;;
12171;SDS011;6149;52.418;13.668;2023-11-18T02:22:41;9.30;;;7.13;;
12171;SDS011;6149;52.418;13.668;2023-11-18T02:25:09;9.93;;;7.33;;
12171;SDS011;6149;52.418;13.668;2023-11-18T02:27:38;10.87;;;7.80;;
12171;SDS011;6149;52.418;13.668;2023-11-18T02:30:05;10.73;;;7.50;;
12171;SDS011;6149;52.418;13.668;2023-11-18T02:32:39;8.17;;;6.97;;
12171;SDS011;6149;52.418;13.668;2023-11-18T02:35:15;9.10;;;6.53;;
12171;SDS011;6149;52.418;13.668;2023-11-18T02:37:49;8.50;;;6.27;;
12171;SDS011;6149;52.418;13.668;2023-11-18T02:40:23;9.90;;;7.03;;
12171;SDS011;6149;52.418;13.668;2023-11-18T02:42:56;8.30;;;6.87;;
12171;SDS011;6149;52.418;13.668;2023-11-18T02:45:25;11.77;;;7.97;;
12171;SDS011;6149;52.418;13.668;2023-11-18T02:47:53;7.23;;;6.40;;
12171;SDS011;6149;52.418;13.668;2023-11-18T02:50:22;7.73;;;6.30;;
12171;SDS011;6149;52.418;13.668;2023-11-18T02:52:49;8.37;;;6.10;;
12171;SDS011;6149;52.418;13.668;2023-11-18T02:55:16;8.33;;;6.60;;
12171;SDS011;6149;52.418;13.668;2023-11-18T02:57:42;9.43;;;6.50;;
12171;SDS011;6149;52.418;13.668;2023-11-18T03:00:11;7.60;;;6.23;;
12171;SDS011;6149;52.418;13.668;2023-11-18T03:02:43;7.50;;;5.57;;
12171;SDS011;6149;52.418;13.668;2023-11-18T03:05:11;7.70;;;5.70;;
12171;SDS011;6149;52.418;13.668;2023-11-18T03:07:37;8.43;;;5.93;;
12171;SDS011;6149;52.418;13.668;2023-11-18T03:10:04;8.10;;;5.47;;
12171;SDS011;6149;52.418;13.668;2023-11-18T03:12:36;8.03;;;5.47;;
12171;SDS011;6149;52.418;13.668;2023-11-18T03:15:04;6.30;;;5.20;;
12171;SDS011;6149;52.418;13.668;2023-11-18T03:17:35;7.13;;;5.70;;
12171;SDS011;6149;52.418;13.668;2023-11-18T03:20:04;8.63;;;5.70;;
12171;SDS011;6149;52.418;13.668;2023-11-18T03:22:37;7.80;;;5.43;;
12171;SDS011;6149;52.418;13.668;2023-11-18T03:25:04;8.23;;;5.60;;
12171;SDS011;6149;52.418;13.668;2023-11-18T03:27:32;6.27;;;5.33;;
12171;SDS011;6149;52.418;13.668;2023-11-18T03:29:59;8.20;;;5.47;;
12171;SDS011;6149;52.418;13.668;2023-11-18T03:32:26;8.17;;;5.67;;
12171;SDS011;6149;52.418;13.668;2023-11-18T03:34:54;9.40;;;6.50;;
12171;SDS011;6149;52.418;13.668;2023-11-18T03:37:23;7.20;;;5.87;;
12171;SDS011;6149;52.418;13.668;2023-11-18T03:39:52;6.90;;;5.47;;
12171;SDS011;6149;52.418;13.668;2023-11-18T03:42:19;11.60;;;6.20;;
12171;SDS011;6149;52.418;13.668;2023-11-18T03:44:47;7.90;;;5.77;;
12171;SDS011;6149;52.418;13.668;2023-11-18T03:47:13;8.03;;;5.70;;
12171;SDS011;6149;52.418;13.668;2023-11-18T03:49:40;9.07;;;6.20;;
12171;SDS011;6149;52.418;13.668;2023-11-18T03:52:08;8.53;;;6.10;;
12171;SDS011;6149;52.418;13.668;2023-11-18T03:54:35;7.47;;;5.90;;
12171;SDS011;6149;52.418;13.668;2023-11-18T03:57:01;8.17;;;5.83;;
12171;SDS011;6149;52.418;13.668;2023-11-18T03:59:28;7.77;;;6.13;;
12171;SDS011;6149;52.418;13.668;2023-11-18T04:01:54;7.57;;;5.93;;
12171;SDS011;6149;52.418;13.668;2023-11-18T04:04:21;9.53;;;6.27;;
12171;SDS011;6149;52.418;13.668;2023-11-18T04:06:48;8.03;;;6.20;;
12171;SDS011;6149;52.418;13.668;2023-11-18T04:09:15;8.70;;;6.33;;
12171;SDS011;6149;52.418;13.668;2023-11-18T04:11:42;7.90;;;6.57;;
12171;SDS011;6149;52.418;13.668;2023-11-18T04:14:10;8.40;;;6.90;;
12171;SDS011;6149;52.418;13.668;2023-11-18T04:16:36;10.20;;;6.77;;
12171;SDS011;6149;52.418;13.668;2023-11-18T04:19:04;9.53;;;6.77;;
12171;SDS011;6149;52.418;13.668;2023-11-18T04:21:31;8.03;;;6.20;;
12171;SDS011;6149;52.418;13.668;2023-11-18T04:23:58;8.13;;;5.73;;
12171;SDS011;6149;52.418;13.668;2023-11-18T04:26:26;9.57;;;6.40;;
12171;SDS011;6149;52.418;13.668;2023-11-18T04:28:53;10.23;;;6.40;;
12171;SDS011;6149;52.418;13.668;2023-11-18T04:31:20;7.40;;;6.23;;
12171;SDS011;6149;52.418;13.668;2023-11-18T04:33:47;8.47;;;5.87;;
12171;SDS011;6149;52.418;13.668;2023-11-18T04:36:13;7.97;;;5.57;;
12171;SDS011;6149;52.418;13.668;2023-11-18T04:38:41;7.67;;;5.30;;
12171;SDS011;6149;52.418;13.668;2023-11-18T04:41:08;9.83;;;6.23;;
12171;SDS011;6149;52.418;13.668;2023-11-18T04:43:36;8.57;;;5.90;;
12171;SDS011;6149;52.418;13.668;2023-11-18T04:46:04;7.30;;;5.60;;
12171;SDS011;6149;52.418;13.668;2023-11-18T04:48:32;8.07;;;5.60;;
12171;SDS011;6149;52.418;13.668;2023-11-18T04:50:59;8.37;;;5.63;;
12171;SDS011;6149;52.418;13.668;2023-11-18T04:53:26;7.43;;;5.33;;
12171;SDS011;6149;52.418;13.668;2023-11-18T04:55:52;7.70;;;5.67;;
12171;SDS011;6149;52.418;13.668;2023-11-18T04:58:21;8.40;;;6.27;;
12171;SDS011;6149;52.418;13.668;2023-11-18T05:00:49;8.67;;;5.67;;
12171;SDS011;6149;52.418;13.668;2023-11-18T05:03:16;6.07;;;5.00;;
12171;SDS011;6149;52.418;13.668;2023-11-18T05:05:43;6.93;;;5.00;;
12171;SDS011;6149;52.418;13.668;2023-11-18T05:08:17;6.07;;;4.70;;
12171;SDS011;6149;52.418;13.668;2023-11-18T05:10:46;5.93;;;4.73;;
12171;SDS011;6149;52.418;13.668;2023-11-18T05:13:13;6.57;;;4.43;;
12171;SDS011;6149;52.418;13.668;2023-11-18T05:15:41;6.13;;;4.20;;
12171;SDS011;6149;52.418;13.668;2023-11-18T05:18:11;6.20;;;4.90;;
12171;SDS011;6149;52.418;13.668;2023-11-18T05:20:39;6.27;;;4.57;;
12171;SDS011;6149;52.418;13.668;2023-11-18T05:23:06;7.57;;;4.57;;
12171;SDS011;6149;52.418;13.668;2023-11-18T05:25:36;5.83;;;4.43;;
12171;SDS011;6149;52.418;13.668;2023-11-18T05:28:06;7.00;;;4.50;;
12171;SDS011;6149;52.418;13.668;2023-11-18T05:30:33;6.23;;;4.40;;
12171;SDS011;6149;52.418;13.668;2023-11-18T05:33:01;5.50;;;4.50;;
12171;SDS011;6149;52.418;13.668;2023-11-18T05:35:31;8.67;;;5.43;;
12171;SDS011;6149;52.418;13.668;2023-11-18T05:37:58;6.93;;;4.80;;
12171;SDS011;6149;52.418;13.668;2023-11-18T05:40:25;7.67;;;4.90;;
12171;SDS011;6149;52.418;13.668;2023-11-18T05:42:52;7.30;;;4.77;;
12171;SDS011;6149;52.418;13.668;2023-11-18T05:45:20;6.10;;;4.77;;
12171;SDS011;6149;52.418;13.668;2023-11-18T05:47:57;6.17;;;4.57;;
12171;SDS011;6149;52.418;13.668;2023-11-18T05:50:24;6.70;;;4.17;;
12171;SDS011;6149;52.418;13.668;2023-11-18T05:52:54;7.10;;;4.70;;
12171;SDS011;6149;52.418;13.668;2023-11-18T05:55:21;6.67;;;4.30;;
12171;SDS011;6149;52.418;13.668;2023-11-18T05:57:47;6.60;;;5.00;;
12171;SDS011;6149;52.418;13.668;2023-11-18T06:00:14;6.33;;;4.50;;
12171;SDS011;6149;52.418;13.668;2023-11-18T06:02:44;5.10;;;4.10;;
12171;SDS011;6149;52.418;13.668;2023-11-18T06:05:11;5.60;;;4.60;;
12171;SDS011;6149;52.418;13.668;2023-11-18T06:07:37;7.17;;;4.70;;
12171;SDS011;6149;52.418;13.668;2023-11-18T06:10:07;6.17;;;4.30;;
12171;SDS011;6149;52.418;13.668;2023-11-18T06:12:34;6.03;;;4.50;;
12171;SDS011;6149;52.418;13.668;2023-11-18T06:15:02;6.00;;;4.80;;
12171;SDS011;6149;52.418;13.668;2023-11-18T06:17:29;5.40;;;4.00;;
12171;SDS011;6149;52.418;13.668;2023-11-18T06:19:56;5.33;;;4.07;;
12171;SDS011;6149;52.418;13.668;2023-11-18T06:22:22;6.13;;;4.27;;
12171;SDS011;6149;52.418;13.668;2023-11-18T06:24:49;6.43;;;4.33;;
12171;SDS011;6149;52.418;13.668;2023-11-18T06:27:18;6.23;;;3.93;;
12171;SDS011;6149;52.418;13.668;2023-11-18T06:29:48;6.10;;;4.10;;
12171;SDS011;6149;52.418;13.668;2023-11-18T06:32:16;5.70;;;4.47;;
12171;SDS011;6149;52.418;13.668;2023-11-18T06:34:43;5.33;;;4.20;;
12171;SDS011;6149;52.418;13.668;2023-11-18T06:37:09;5.90;;;4.20;;
12171;SDS011;6149;52.418;13.668;2023-11-18T06:39:40;8.03;;;5.50;;
12171;SDS011;6149;52.418;13.668;2023-11-18T06:42:10;7.97;;;5.40;;
12171;SDS011;6149;52.418;13.668;2023-11-18T06:44:40;8.10;;;6.03;;
12171;SDS011;6149;52.418;13.668;2023-11-18T06:47:06;8.37;;;5.73;;
12171;SDS011;6149;52.418;13.668;2023-11-18T06:49:33;9.33;;;6.07;;
12171;SDS011;6149;52.418;13.668;2023-11-18T06:52:00;8.60;;;6.27;;
12171;SDS011;6149;52.418;13.668;2023-11-18T06:54:28;8.77;;;5.83;;
12171;SDS011;6149;52.418;13.668;2023-11-18T06:56:55;11.03;;;7.27;;
12171;SDS011;6149;52.418;13.668;2023-11-18T06:59:22;10.93;;;7.27;;
12171;SDS011;6149;52.418;13.668;2023-11-18T07:01:49;9.60;;;6.83;;
12171;SDS011;6149;52.418;13.668;2023-11-18T07:04:16;9.43;;;6.20;;
12171;SDS011;6149;52.418;13.668;2023-11-18T07:06:44;12.47;;;7.57;;
12171;SDS011;6149;52.418;13.668;2023-11-18T07:09:10;7.60;;;5.83;;
12171;SDS011;6149;52.418;13.668;2023-11-18T07:11:42;7.77;;;6.37;;
12171;SDS011;6149;52.418;13.668;2023-11-18T07:14:10;9.33;;;6.67;;
12171;SDS011;6149;52.418;13.668;2023-11-18T07:16:38;11.40;;;6.73;;
12171;SDS011;6149;52.418;13.668;2023-11-18T07:19:09;7.87;;;6.23;;
12171;SDS011;6149;52.418;13.668;2023-11-18T07:21:42;7.30;;;5.80;;
12171;SDS011;6149;52.418;13.668;2023-11-18T07:24:09;9.33;;;6.40;;
12171;SDS011;6149;52.418;13.668;2023-11-18T07:26:36;9.47;;;6.17;;
12171;SDS011;6149;52.418;13.668;2023-11-18T07:29:02;9.63;;;6.70;;
12171;SDS011;6149;52.418;13.668;2023-11-18T07:31:29;9.33;;;6.73;;
12171;SDS011;6149;52.418;13.668;2023-11-18T07:33:56;9.40;;;6.70;;
12171;SDS011;6149;52.418;13.668;2023-11-18T07:36:23;9.90;;;7.47;;
12171;SDS011;6149;52.418;13.668;2023-11-18T07:38:52;8.50;;;6.53;;
12171;SDS011;6149;52.418;13.668;2023-11-18T07:41:20;10.60;;;6.77;;
12171;SDS011;6149;52.418;13.668;2023-11-18T07:43:49;9.97;;;7.17;;
12171;SDS011;6149;52.418;13.668;2023-11-18T07:46:17;9.60;;;7.50;;
12171;SDS011;6149;52.418;13.668;2023-11-18T07:48:47;10.27;;;7.00;;
12171;SDS011;6149;52.418;13.668;2023-11-18T07:51:14;9.73;;;6.67;;
12171;SDS011;6149;52.418;13.668;2023-11-18T07:53:42;8.17;;;6.90;;
12171;SDS011;6149;52.418;13.668;2023-11-18T07:56:09;9.67;;;7.10;;
12171;SDS011;6149;52.418;13.668;2023-11-18T07:58:37;10.03;;;6.77;;
12171;SDS011;6149;52.418;13.668;2023-11-18T08:01:04;10.97;;;7.57;;
12171;SDS011;6149;52.418;13.668;2023-11-18T08:03:32;12.23;;;7.30;;
12171;SDS011;6149;52.418;13.668;2023-11-18T08:05:59;8.90;;;7.27;;
12171;SDS011;6149;52.418;13.668;2023-11-18T08:08:27;9.60;;;7.47;;
12171;SDS011;6149;52.418;13.668;2023-11-18T08:10:55;10.80;;;7.93;;
12171;SDS011;6149;52.418;13.668;2023-11-18T08:13:21;11.60;;;7.03;;
12171;SDS011;6149;52.418;13.668;2023-11-18T08:15:48;9.43;;;7.47;;
12171;SDS011;6149;52.418;13.668;2023-11-18T08:18:15;9.80;;;7.23;;
12171;SDS011;6149;52.418;13.668;2023-11-18T08:20:42;9.43;;;7.40;;
12171;SDS011;6149;52.418;13.668;2023-11-18T08:23:09;13.23;;;6.73;;
12171;SDS011;6149;52.418;13.668;2023-11-18T08:25:36;9.53;;;7.10;;
12171;SDS011;6149;52.418;13.668;2023-11-18T08:28:06;9.97;;;7.30;;
12171;SDS011;6149;52.418;13.668;2023-11-18T08:30:34;12.97;;;6.83;;
12171;SDS011;6149;52.418;13.668;2023-11-18T08:33:04;11.37;;;7.57;;
12171;SDS011;6149;52.418;13.668;2023-11-18T08:35:33;11.03;;;7.83;;
12171;SDS011;6149;52.418;13.668;2023-11-18T08:38:00;10.13;;;7.57;;
12171;SDS011;6149;52.418;13.668;2023-11-18T08:40:29;10.60;;;7.73;;
12171;SDS011;6149;52.418;13.668;2023-11-18T08:42:56;11.33;;;7.57;;
12171;SDS011;6149;52.418;13.668;2023-11-18T08:45:24;13.37;;;7.60;;
12171;SDS011;6149;52.418;13.668;2023-11-18T08:47:54;10.33;;;7.80;;
12171;SDS011;6149;52.418;13.668;2023-11-18T08:50:21;11.30;;;8.33;;
12171;SDS011;6149;52.418;13.668;2023-11-18T08:52:50;12.30;;;8.37;;
12171;SDS011;6149;52.418;13.668;2023-11-18T08:55:22;10.77;;;8.07;;
12171;SDS011;6149;52.418;13.668;2023-11-18T08:58:03;9.43;;;7.13;;
12171;SDS011;6149;52.418;13.668;2023-11-18T09:00:42;8.83;;;7.53;;
12171;SDS011;6149;52.418;13.668;2023-11-18T09:03:13;9.53;;;6.77;;
12171;SDS011;6149;52.418;13.668;2023-11-18T09:05:49;9.37;;;7.10;;
12171;SDS011;6149;52.418;13.668;2023-11-18T09:08:25;12.63;;;7.83;;
12171;SDS011;6149;52.418;13.668;2023-11-18T09:10:54;9.70;;;6.70;;
12171;SDS011;6149;52.418;13.668;2023-11-18T09:13:22;7.73;;;6.40;;
12171;SDS011;6149;52.418;13.668;2023-11-18T09:15:55;9.87;;;7.07;;
12171;SDS011;6149;52.418;13.668;2023-11-18T09:18:22;9.53;;;7.00;;
12171;SDS011;6149;52.418;13.668;2023-11-18T09:20:50;9.87;;;7.27;;
12171;SDS011;6149;52.418;13.668;2023-11-18T09:23:17;10.73;;;6.50;;
12171;SDS011;6149;52.418;13.668;2023-11-18T09:25:45;7.83;;;5.73;;
12171;SDS011;6149;52.418;13.668;2023-11-18T09:28:13;8.47;;;6.57;;
12171;SDS011;6149;52.418;13.668;2023-11-18T09:30:40;8.50;;;6.77;;
12171;SDS011;6149;52.418;13.668;2023-11-18T09:33:16;11.07;;;8.63;;
12171;SDS011;6149;52.418;13.668;2023-11-18T09:35:51;9.43;;;6.60;;
12171;SDS011;6149;52.418;13.668;2023-11-18T09:38:21;8.73;;;6.77;;
12171;SDS011;6149;52.418;13.668;2023-11-18T09:40:49;8.13;;;6.47;;
12171;SDS011;6149;52.418;13.668;2023-11-18T09:43:19;7.67;;;6.17;;
12171;SDS011;6149;52.418;13.668;2023-11-18T09:45:47;8.57;;;5.97;;
12171;SDS011;6149;52.418;13.668;2023-11-18T09:48:18;9.03;;;5.57;;
12171;SDS011;6149;52.418;13.668;2023-11-18T09:50:51;7.13;;;5.40;;
12171;SDS011;6149;52.418;13.668;2023-11-18T09:53:19;8.57;;;6.40;;
12171;SDS011;6149;52.418;13.668;2023-11-18T09:55:52;9.10;;;5.97;;
12171;SDS011;6149;52.418;13.668;2023-11-18T09:58:25;6.30;;;4.77;;
12171;SDS011;6149;52.418;13.668;2023-11-18T10:01:06;6.80;;;5.07;;
12171;SDS011;6149;52.418;13.668;2023-11-18T10:03:40;7.30;;;5.57;;
12171;SDS011;6149;52.418;13.668;2023-11-18T10:06:11;6.27;;;4.87;;
12171;SDS011;6149;52.418;13.668;2023-11-18T10:08:40;7.17;;;5.43;;
12171;SDS011;6149;52.418;13.668;2023-11-18T10:11:11;8.17;;;5.27;;
12171;SDS011;6149;52.418;13.668;2023-11-18T10:13:38;7.37;;;5.90;;
12171;SDS011;6149;52.418;13.668;2023-11-18T10:16:06;7.07;;;4.77;;
12171;SDS011;6149;52.418;13.668;2023-11-18T10:18:33;5.43;;;4.77;;
12171;SDS011;6149;52.418;13.668;2023-11-18T10:21:03;6.90;;;5.10;;
12171;SDS011;6149;52.418;13.668;2023-11-18T10:23:33;6.83;;;4.87;;
12171;SDS011;6149;52.418;13.668;2023-11-18T10:26:02;7.03;;;5.43;;
12171;SDS011;6149;52.418;13.668;2023-11-18T10:28:32;7.07;;;5.10;;
12171;SDS011;6149;52.418;13.668;2023-11-18T10:31:03;6.53;;;5.50;;
12171;SDS011;6149;52.418;13.668;2023-11-18T10:33:31;6.67;;;5.03;;
12171;SDS011;6149;52.418;13.668;2023-11-18T10:36:02;6.50;;;4.87;;
12171;SDS011;6149;52.418;13.668;2023-11-18T10:38:38;6.20;;;5.43;;
12171;SDS011;6149;52.418;13.668;2023-11-18T10:41:08;6.50;;;4.83;;
12171;SDS011;6149;52.418;13.668;2023-11-18T10:43:37;7.63;;;5.40;;
12171;SDS011;6149;52.418;13.668;2023-11-18T10:46:07;5.87;;;4.80;;
12171;SDS011;6149;52.418;13.668;2023-11-18T10:48:39;5.93;;;5.03;;
12171;SDS011;6149;52.418;13.668;2023-11-18T10:51:12;6.50;;;4.90;;
12171;SDS011;6149;52.418;13.668;2023-11-18T10:53:41;5.87;;;4.50;;
12171;SDS011;6149;52.418;13.668;2023-11-18T10:56:18;6.37;;;4.77;;
12171;SDS011;6149;52.418;13.668;2023-11-18T10:58:49;6.73;;;5.00;;
12171;SDS011;6149;52.418;13.668;2023-11-18T11:01:19;6.47;;;5.13;;
12171;SDS011;6149;52.418;13.668;2023-11-18T11:03:54;5.77;;;4.93;;
12171;SDS011;6149;52.418;13.668;2023-11-18T11:06:23;5.73;;;4.83;;
12171;SDS011;6149;52.418;13.668;2023-11-18T11:08:50;6.00;;;4.83;;
12171;SDS011;6149;52.418;13.668;2023-11-18T11:11:18;6.43;;;4.43;;
12171;SDS011;6149;52.418;13.668;2023-11-18T11:13:49;6.47;;;5.27;;
12171;SDS011;6149;52.418;13.668;2023-11-18T11:16:23;6.70;;;5.40;;
12171;SDS011;6149;52.418;13.668;2023-11-18T11:18:58;8.93;;;5.67;;
12171;SDS011;6149;52.418;13.668;2023-11-18T11:21:35;5.97;;;5.20;;
12171;SDS011;6149;52.418;13.668;2023-11-18T11:24:15;5.70;;;5.07;;
12171;SDS011;6149;52.418;13.668;2023-11-18T11:27:00;5.37;;;4.73;;
12171;SDS011;6149;52.418;13.668;2023-11-18T11:29:47;6.37;;;5.40;;
12171;SDS011;6149;52.418;13.668;2023-11-18T11:32:22;6.83;;;6.13;;
12171;SDS011;6149;52.418;13.668;2023-11-18T11:34:56;6.87;;;5.57;;
12171;SDS011;6149;52.418;13.668;2023-11-18T11:37:34;6.80;;;5.70;;
12171;SDS011;6149;52.418;13.668;2023-11-18T11:40:00;7.43;;;5.37;;
12171;SDS011;6149;52.418;13.668;2023-11-18T11:42:32;5.70;;;5.17;;
12171;SDS011;6149;52.418;13.668;2023-11-18T11:45:01;6.87;;;5.60;;
12171;SDS011;6149;52.418;13.668;2023-11-18T11:47:28;6.00;;;4.93;;
12171;SDS011;6149;52.418;13.668;2023-11-18T11:50:02;6.00;;;5.27;;
12171;SDS011;6149;52.418;13.668;2023-11-18T11:52:40;6.00;;;4.67;;
12171;SDS011;6149;52.418;13.668;2023-11-18T11:55:15;6.67;;;5.50;;
12171;SDS011;6149;52.418;13.668;2023-11-18T11:57:53;7.67;;;4.83;;
12171;SDS011;6149;52.418;13.668;2023-11-18T12:00:23;5.77;;;4.97;;
12171;SDS011;6149;52.418;13.668;2023-11-18T12:02:51;7.60;;;4.30;;
12171;SDS011;6149;52.418;13.668;2023-11-18T12:05:20;9.27;;;6.90;;
12171;SDS011;6149;52.418;13.668;2023-11-18T12:07:52;6.07;;;4.40;;
12171;SDS011;6149;52.418;13.668;2023-11-18T12:10:20;5.07;;;4.27;;
12171;SDS011;6149;52.418;13.668;2023-11-18T12:12:48;5.30;;;4.30;;
12171;SDS011;6149;52.418;13.668;2023-11-18T12:15:19;7.07;;;5.30;;
12171;SDS011;6149;52.418;13.668;2023-11-18T12:18:19;7.20;;;5.00;;
12171;SDS011;6149;52.418;13.668;2023-11-18T12:20:46;6.47;;;5.33;;
12171;SDS011;6149;52.418;13.668;2023-11-18T12:23:20;7.47;;;5.93;;
12171;SDS011;6149;52.418;13.668;2023-11-18T12:25:49;6.67;;;5.53;;
12171;SDS011;6149;52.418;13.668;2023-11-18T12:28:25;7.97;;;5.70;;
12171;SDS011;6149;52.418;13.668;2023-11-18T12:30:59;7.67;;;5.57;;
12171;SDS011;6149;52.418;13.668;2023-11-18T12:36:44;8.87;;;6.00;;
12171;SDS011;6149;52.418;13.668;2023-11-18T12:39:37;8.10;;;5.63;;
12171;SDS011;6149;52.418;13.668;2023-11-18T12:45:43;8.07;;;5.40;;
12171;SDS011;6149;52.418;13.668;2023-11-18T12:48:25;6.73;;;4.63;;
12171;SDS011;6149;52.418;13.668;2023-11-18T12:50:57;7.10;;;6.00;;
12171;SDS011;6149;52.418;13.668;2023-11-18T12:53:25;8.17;;;5.30;;
12171;SDS011;6149;52.418;13.668;2023-11-18T12:55:54;8.53;;;6.30;;
12171;SDS011;6149;52.418;13.668;2023-11-18T12:58:25;9.20;;;6.60;;
12171;SDS011;6149;52.418;13.668;2023-11-18T13:00:54;10.53;;;6.87;;
12171;SDS011;6149;52.418;13.668;2023-11-18T13:03:21;10.30;;;7.07;;
12171;SDS011;6149;52.418;13.668;2023-11-18T13:05:48;10.60;;;7.90;;
12171;SDS011;6149;52.418;13.668;2023-11-18T13:08:17;11.30;;;8.07;;
12171;SDS011;6149;52.418;13.668;2023-11-18T13:10:47;9.23;;;7.43;;
12171;SDS011;6149;52.418;13.668;2023-11-18T13:13:15;9.17;;;6.93;;
12171;SDS011;6149;52.418;13.668;2023-11-18T13:15:44;10.53;;;7.30;;
12171;SDS011;6149;52.418;13.668;2023-11-18T13:18:14;10.53;;;7.40;;
12171;SDS011;6149;52.418;13.668;2023-11-18T13:20:40;9.27;;;7.27;;
12171;SDS011;6149;52.418;13.668;2023-11-18T13:23:08;8.90;;;7.00;;
12171;SDS011;6149;52.418;13.668;2023-11-18T13:25:35;11.30;;;7.47;;
12171;SDS011;6149;52.418;13.668;2023-11-18T13:28:04;9.60;;;7.30;;
12171;SDS011;6149;52.418;13.668;2023-11-18T13:30:32;11.37;;;7.73;;
12171;SDS011;6149;52.418;13.668;2023-11-18T13:32:59;8.77;;;7.10;;
12171;SDS011;6149;52.418;13.668;2023-11-18T13:35:27;9.77;;;6.87;;
12171;SDS011;6149;52.418;13.668;2023-11-18T13:37:53;11.80;;;7.57;;
12171;SDS011;6149;52.418;13.668;2023-11-18T13:40:22;11.17;;;7.10;;
12171;SDS011;6149;52.418;13.668;2023-11-18T13:43:01;9.17;;;7.17;;
12171;SDS011;6149;52.418;13.668;2023-11-18T13:45:30;10.93;;;7.27;;
12171;SDS011;6149;52.418;13.668;2023-11-18T13:47:59;8.93;;;7.07;;
12171;SDS011;6149;52.418;13.668;2023-11-18T13:50:27;10.27;;;6.80;;
12171;SDS011;6149;52.418;13.668;2023-11-18T13:52:53;10.63;;;7.03;;
12171;SDS011;6149;52.418;13.668;2023-11-18T13:55:20;9.70;;;7.23;;
12171;SDS011;6149;52.418;13.668;2023-11-18T13:57:51;12.70;;;8.00;;
12171;SDS011;6149;52.418;13.668;2023-11-18T14:00:21;11.90;;;8.50;;
12171;SDS011;6149;52.418;13.668;2023-11-18T14:02:51;10.60;;;8.40;;
12171;SDS011;6149;52.418;13.668;2023-11-18T14:05:22;13.03;;;7.50;;
12171;SDS011;6149;52.418;13.668;2023-11-18T14:07:51;11.20;;;6.80;;
12171;SDS011;6149;52.418;13.668;2023-11-18T14:10:20;10.23;;;6.40;;
12171;SDS011;6149;52.418;13.668;2023-11-18T14:12:59;10.47;;;6.17;;
12171;SDS011;6149;52.418;13.668;2023-11-18T14:15:28;7.57;;;6.30;;
12171;SDS011;6149;52.418;13.668;2023-11-18T14:17:56;9.80;;;6.03;;
12171;SDS011;6149;52.418;13.668;2023-11-18T14:20:24;9.97;;;5.93;;
12171;SDS011;6149;52.418;13.668;2023-11-18T14:22:50;8.87;;;5.70;;
12171;SDS011;6149;52.418;13.668;2023-11-18T14:25:17;8.77;;;5.67;;
12171;SDS011;6149;52.418;13.668;2023-11-18T14:27:44;13.10;;;6.80;;
12171;SDS011;6149;52.418;13.668;2023-11-18T14:30:11;8.63;;;6.63;;
12171;SDS011;6149;52.418;13.668;2023-11-18T14:32:41;9.93;;;6.40;;
12171;SDS011;6149;52.418;13.668;2023-11-18T14:35:08;8.20;;;5.60;;
12171;SDS011;6149;52.418;13.668;2023-11-18T14:37:36;7.80;;;5.20;;
12171;SDS011;6149;52.418;13.668;2023-11-18T14:40:07;11.90;;;5.77;;
12171;SDS011;6149;52.418;13.668;2023-11-18T14:42:38;9.67;;;5.67;;
12171;SDS011;6149;52.418;13.668;2023-11-18T14:45:07;9.70;;;6.13;;
12171;SDS011;6149;52.418;13.668;2023-11-18T14:47:34;9.60;;;6.80;;
12171;SDS011;6149;52.418;13.668;2023-11-18T14:50:01;8.13;;;5.97;;
12171;SDS011;6149;52.418;13.668;2023-11-18T14:52:30;12.13;;;7.00;;
12171;SDS011;6149;52.418;13.668;2023-11-18T14:54:58;9.67;;;6.37;;
12171;SDS011;6149;52.418;13.668;2023-11-18T14:57:25;10.30;;;7.93;;
12171;SDS011;6149;52.418;13.668;2023-11-18T14:59:54;13.20;;;7.73;;
12171;SDS011;6149;52.418;13.668;2023-11-18T15:02:20;11.37;;;8.00;;